createdAt,value
2023-05-21T00:04:33.775Z,8.37
2023-05-21T00:09:38.205Z,8.67
2023-05-21T00:14:40.892Z,8.00
2023-05-21T00:19:50.085Z,8.40
2023-05-21T00:24:53.110Z,7.90
2023-05-21T00:29:55.895Z,9.40
2023-05-21T00:35:00.259Z,8.00
2023-05-21T00:40:06.527Z,7.23
2023-05-21T00:45:10.107Z,8.47
2023-05-21T00:50:21.741Z,8.60
2023-05-21T00:55:25.377Z,7.70
2023-05-21T01:00:28.720Z,7.50
2023-05-21T01:05:33.106Z,8.23
2023-05-21T01:10:35.958Z,7.80
2023-05-21T01:15:39.152Z,7.90
2023-05-21T01:20:48.275Z,7.07
2023-05-21T01:25:54.803Z,7.20
2023-05-21T01:31:03.639Z,6.20
2023-05-21T01:36:25.120Z,6.93
2023-05-21T01:41:33.922Z,6.70
2023-05-21T01:46:37.785Z,6.80
2023-05-21T01:51:41.075Z,7.10
2023-05-21T01:56:47.795Z,7.07
2023-05-21T02:01:50.599Z,7.00
2023-05-21T02:06:54.750Z,7.40
2023-05-21T02:11:59.129Z,6.87
2023-05-21T02:17:02.289Z,7.40
2023-05-21T02:22:05.154Z,7.07
2023-05-21T02:27:10.502Z,7.73
2023-05-21T02:32:13.900Z,6.53
2023-05-21T02:37:18.858Z,8.03
2023-05-21T02:42:23.601Z,7.57
2023-05-21T02:47:28.169Z,6.73
2023-05-21T02:52:31.282Z,8.47
2023-05-21T02:57:35.663Z,7.17
2023-05-21T03:02:38.505Z,7.87
2023-05-21T03:07:41.978Z,7.50
2023-05-21T03:12:46.099Z,7.60
2023-05-21T03:17:49.844Z,6.90
2023-05-21T03:22:55.369Z,8.30
2023-05-21T03:27:59.628Z,7.33
2023-05-21T03:33:20.730Z,7.30
2023-05-21T03:38:26.212Z,7.30
2023-05-21T03:43:32.645Z,7.23
2023-05-21T03:48:35.671Z,7.40
2023-05-21T03:53:38.382Z,7.13
2023-05-21T03:58:42.726Z,6.83
2023-05-21T04:03:45.787Z,6.40
2023-05-21T04:08:49.930Z,6.90
2023-05-21T04:13:56.797Z,7.10
2023-05-21T04:18:59.548Z,6.57
2023-05-21T04:24:03.820Z,7.83
2023-05-21T04:29:29.882Z,7.27
2023-05-21T04:34:33.900Z,6.60
2023-05-21T04:39:40.966Z,7.40
2023-05-21T04:44:45.523Z,7.00
2023-05-21T04:49:48.564Z,7.20
2023-05-21T04:54:51.748Z,7.37
2023-05-21T04:59:58.159Z,7.50
2023-05-21T05:05:02.282Z,7.60
2023-05-21T05:10:09.672Z,7.47
2023-05-21T05:15:13.891Z,7.20
2023-05-21T05:20:17.199Z,7.30
2023-05-21T05:25:22.983Z,7.20
2023-05-21T05:30:28.574Z,8.03
2023-05-21T05:35:39.495Z,7.87
2023-05-21T05:40:43.440Z,8.10
2023-05-21T05:45:50.202Z,7.50
2023-05-21T05:50:54.610Z,7.03
2023-05-21T05:55:57.953Z,9.30
2023-05-21T06:01:03.013Z,9.83
2023-05-21T06:06:06.120Z,7.60
2023-05-21T06:11:09.547Z,7.67
2023-05-21T06:16:13.791Z,7.50
2023-05-21T06:21:16.718Z,8.50
2023-05-21T06:26:21.984Z,8.00
2023-05-21T06:31:28.032Z,7.57
2023-05-21T06:36:32.682Z,8.70
2023-05-21T06:41:39.654Z,8.23
2023-05-21T06:47:23.107Z,8.13
2023-05-21T06:52:53.436Z,9.60
2023-05-21T06:58:02.642Z,9.90
2023-05-21T07:03:08.649Z,9.10
2023-05-21T07:08:14.379Z,19.43
2023-05-21T07:13:17.557Z,25.77
2023-05-21T07:18:22.261Z,9.20
2023-05-21T07:23:26.227Z,24.40
2023-05-21T07:28:29.006Z,11.67
2023-05-21T07:33:36.671Z,8.80
2023-05-21T07:38:40.216Z,13.00
2023-05-21T07:43:44.915Z,9.17
2023-05-21T07:48:57.281Z,13.10
2023-05-21T07:54:01.103Z,9.53
2023-05-21T07:59:08.845Z,9.10
2023-05-21T08:04:16.670Z,9.60
2023-05-21T08:09:21.676Z,9.23
2023-05-21T08:14:26.500Z,10.13
2023-05-21T08:19:33.924Z,9.80
2023-05-21T08:24:37.579Z,11.87
2023-05-21T08:29:40.521Z,16.37
2023-05-21T08:34:49.228Z,9.10
2023-05-21T08:40:16.286Z,9.10
2023-05-21T08:45:25.627Z,10.97
2023-05-21T08:50:32.485Z,10.17
2023-05-21T08:55:46.684Z,10.40
2023-05-21T09:00:59.612Z,10.50
2023-05-21T09:06:09.177Z,17.87
2023-05-21T09:11:15.658Z,12.10
2023-05-21T09:16:35.870Z,10.60
2023-05-21T09:21:43.482Z,10.63
2023-05-21T09:27:12.288Z,10.20
2023-05-21T09:32:18.991Z,11.03
2023-05-21T09:37:27.402Z,10.60
2023-05-21T09:42:49.347Z,11.07
2023-05-21T09:48:09.553Z,11.07
2023-05-21T09:53:47.336Z,11.27
2023-05-21T09:58:40.948Z,10.00
2023-05-21T10:03:50.747Z,10.63
2023-05-21T10:09:02.548Z,11.30
2023-05-21T10:14:10.501Z,16.37
2023-05-21T10:19:19.561Z,12.17
2023-05-21T10:24:25.887Z,13.03
2023-05-21T10:29:30.383Z,11.40
2023-05-21T10:34:33.220Z,12.23
2023-05-21T10:39:39.956Z,11.30
2023-05-21T10:45:01.388Z,11.63
2023-05-21T10:50:27.684Z,13.10
2023-05-21T10:55:58.322Z,12.90
2023-05-21T11:01:07.040Z,13.30
2023-05-21T11:06:11.674Z,11.80
2023-05-21T11:11:43.764Z,12.63
2023-05-21T11:16:49.399Z,11.30
2023-05-21T11:21:52.566Z,11.30
2023-05-21T11:27:04.652Z,11.93
2023-05-21T11:32:09.191Z,13.00
2023-05-21T11:37:40.756Z,12.10
2023-05-21T11:43:03.217Z,11.50
2023-05-21T11:48:08.771Z,13.37
2023-05-21T11:53:18.336Z,11.70
2023-05-21T11:58:23.033Z,14.10
2023-05-21T12:03:30.840Z,12.87
2023-05-21T12:08:34.508Z,13.10
2023-05-21T12:13:40.673Z,14.07
2023-05-21T12:18:46.577Z,11.77
2023-05-21T12:24:00.999Z,12.00
2023-05-21T12:29:08.031Z,11.20
2023-05-21T12:34:11.933Z,11.50
2023-05-21T12:39:15.847Z,11.50
2023-05-21T12:44:20.146Z,11.43
2023-05-21T12:49:34.981Z,11.40
2023-05-21T12:54:38.898Z,10.63
2023-05-21T12:59:51.052Z,11.87
2023-05-21T13:04:58.987Z,10.33
2023-05-21T13:10:06.695Z,11.00
2023-05-21T13:15:27.812Z,11.20
2023-05-21T13:20:36.342Z,11.90
2023-05-21T13:25:40.053Z,10.93
2023-05-21T13:30:46.694Z,11.47
2023-05-21T13:35:51.961Z,11.37
2023-05-21T13:40:55.245Z,10.13
2023-05-21T13:45:59.416Z,10.17
2023-05-21T13:51:02.263Z,12.10
2023-05-21T13:56:07.160Z,13.00
2023-05-21T14:01:13.830Z,11.07
2023-05-21T14:06:17.311Z,9.70
2023-05-21T14:11:20.393Z,11.33
2023-05-21T14:16:27.199Z,12.00
2023-05-21T14:21:32.749Z,11.33
2023-05-21T14:26:36.917Z,11.80
2023-05-21T14:31:41.642Z,11.83
2023-05-21T14:36:44.502Z,15.03
2023-05-21T14:41:47.410Z,12.67
2023-05-21T14:46:52.165Z,15.40
2023-05-21T14:51:57.141Z,13.13
2023-05-21T14:57:00.024Z,11.30
2023-05-21T15:02:04.503Z,12.50
2023-05-21T15:07:07.737Z,12.50
2023-05-21T15:12:10.844Z,12.00
2023-05-21T15:17:15.092Z,13.43
2023-05-21T15:22:19.146Z,12.30
2023-05-21T15:27:35.953Z,14.47
2023-05-21T15:32:39.984Z,12.67
2023-05-21T15:37:47.537Z,12.17
2023-05-21T15:42:50.431Z,12.20
2023-05-21T15:47:54.743Z,11.90
2023-05-21T15:52:57.756Z,11.53
2023-05-21T15:58:02.238Z,27.63
2023-05-21T16:03:06.859Z,14.10
2023-05-21T16:08:10.703Z,12.03
2023-05-21T16:13:13.504Z,13.20
2023-05-21T16:18:17.719Z,12.70
2023-05-21T16:23:20.437Z,15.63
2023-05-21T16:28:24.237Z,12.13
2023-05-21T16:33:37.570Z,12.53
2023-05-21T16:38:40.278Z,12.23
2023-05-21T16:43:43.137Z,12.43
2023-05-21T16:48:47.247Z,15.30
2023-05-21T16:53:49.998Z,12.23
2023-05-21T16:58:52.812Z,12.27
2023-05-21T17:03:57.203Z,12.20
2023-05-21T17:09:00.398Z,12.20
2023-05-21T17:14:03.209Z,18.90
2023-05-21T17:19:07.425Z,11.97
2023-05-21T17:24:10.283Z,12.30
2023-05-21T17:29:13.033Z,11.80
2023-05-21T17:34:17.892Z,14.50
2023-05-21T17:39:21.003Z,13.43
2023-05-21T17:44:23.852Z,14.10
2023-05-21T17:49:35.435Z,12.30
2023-05-21T17:54:41.429Z,14.17
2023-05-21T17:59:46.445Z,13.90
2023-05-21T18:04:50.930Z,13.20
2023-05-21T18:09:53.784Z,13.87
2023-05-21T18:15:02.238Z,12.10
2023-05-21T18:26:22.797Z,13.53
2023-05-21T18:31:26.174Z,13.77
2023-05-21T18:36:58.749Z,15.17
2023-05-21T18:42:12.951Z,14.97
2023-05-21T18:47:50.613Z,15.40
2023-05-21T18:59:32.355Z,15.27
2023-05-21T19:04:52.668Z,14.80
2023-05-21T19:10:12.015Z,18.23
2023-05-21T19:16:06.818Z,16.63
2023-05-21T19:21:52.587Z,15.97
2023-05-21T19:27:58.125Z,35.10
2023-05-21T19:33:13.215Z,17.60
2023-05-21T19:44:12.740Z,16.60
2023-05-21T19:49:15.800Z,16.80
2023-05-21T19:54:18.964Z,14.47
2023-05-21T19:59:26.172Z,17.77
2023-05-21T20:04:28.881Z,16.73
2023-05-21T20:09:32.102Z,15.57
2023-05-21T20:14:36.174Z,20.60
2023-05-21T20:19:40.297Z,21.87
2023-05-21T20:24:42.962Z,23.60
2023-05-21T20:29:47.533Z,23.27
2023-05-21T20:35:02.859Z,24.37
2023-05-21T20:40:09.079Z,24.17
2023-05-21T20:45:15.655Z,27.00
2023-05-21T20:50:21.666Z,26.77
2023-05-21T20:55:24.520Z,27.97
2023-05-21T21:00:30.597Z,26.23
2023-05-21T21:05:33.299Z,23.73
2023-05-21T21:10:36.922Z,24.03
2023-05-21T21:15:43.604Z,24.10
2023-05-21T21:20:49.487Z,25.63
2023-05-21T21:25:52.502Z,24.30
2023-05-21T21:30:56.611Z,24.40
2023-05-21T21:36:03.034Z,20.50
2023-05-21T21:41:07.446Z,16.80
2023-05-21T21:46:12.128Z,15.37
2023-05-21T21:51:15.589Z,13.47
2023-05-21T21:56:18.464Z,11.90
2023-05-21T22:01:22.717Z,10.43
2023-05-21T22:06:28.512Z,10.93
2023-05-21T22:11:32.059Z,11.17
2023-05-21T22:16:43.824Z,11.30
2023-05-21T22:21:46.609Z,14.00
2023-05-21T22:26:49.626Z,13.30
2023-05-21T22:31:53.916Z,16.40
2023-05-21T22:36:57.810Z,17.20
2023-05-21T22:42:00.772Z,19.20
2023-05-21T22:47:05.364Z,16.07
2023-05-21T22:52:13.250Z,13.57
2023-05-21T22:57:16.053Z,11.40
2023-05-21T23:02:20.271Z,10.83
2023-05-21T23:07:23.002Z,9.60
2023-05-21T23:12:25.882Z,10.77
2023-05-21T23:17:29.997Z,11.57
2023-05-21T23:22:32.845Z,12.37
2023-05-21T23:27:35.834Z,13.73
2023-05-21T23:32:39.963Z,15.70
2023-05-21T23:37:48.824Z,17.40
2023-05-21T23:42:51.540Z,15.37
2023-05-21T23:47:55.845Z,15.00
2023-05-21T23:52:59.512Z,13.93
2023-05-21T23:58:06.709Z,13.80
